Time,TemperatureF,DewpointF,PressureIn,WindDirection,WindDirectionDegrees,WindSpeedMPH,WindSpeedGustMPH,Humidity,HourlyPrecipIn,Conditions,Clouds,dailyrainin,SoftwareType,DateUTC
2013-03-04 00:00:00,20.5,16.7,30.13,WSW,241,0.0,3.0,85,0.00,,---,0.00,VWS V14.00,2013-03-04 05:00:00,
2013-03-04 00:30:00,19.2,16.2,30.13,WSW,241,0.0,0.0,88,0.00,,---,0.00,VWS V14.00,2013-03-04 05:30:00,
2013-03-04 01:00:00,18.4,15.7,30.14,SSE,158,0.0,0.0,89,0.00,,---,0.00,VWS V14.00,2013-03-04 06:00:00,
2013-03-04 01:30:00,17.9,15.2,30.13,SE,130,0.0,1.0,89,0.00,,---,0.00,VWS V14.00,2013-03-04 06:30:00,
2013-03-04 02:00:00,17.4,15.0,30.14,SE,130,1.0,1.0,90,0.00,,---,0.00,VWS V14.00,2013-03-04 07:00:00,
2013-03-04 02:30:00,17.1,14.9,30.14,SE,130,0.0,1.0,91,0.00,,---,0.00,VWS V14.00,2013-03-04 07:30:00,
2013-03-04 03:00:00,16.3,14.4,30.14,SE,129,0.0,0.0,92,0.00,,---,0.00,VWS V14.00,2013-03-04 08:00:00,
2013-03-04 03:30:00,16.0,14.1,30.15,SE,130,0.0,0.0,92,0.00,,---,0.00,VWS V14.00,2013-03-04 08:30:00,
2013-03-04 04:00:00,16.3,14.4,30.15,SE,130,0.0,1.0,92,0.00,,---,0.00,VWS V14.00,2013-03-04 09:00:00,
2013-03-04 04:30:00,15.6,13.7,30.15,SE,130,0.0,1.0,92,0.00,,---,0.00,VWS V14.00,2013-03-04 09:30:00,
2013-03-04 05:00:00,15.4,13.5,30.17,SE,130,0.0,1.0,92,0.00,,---,0.00,VWS V14.00,2013-03-04 10:00:00,
2013-03-04 05:30:00,15.4,13.7,30.17,SE,130,0.0,0.0,93,0.00,,---,0.00,VWS V14.00,2013-03-04 10:30:00,
2013-03-04 06:00:00,15.5,13.8,30.17,SE,129,0.0,1.0,93,0.00,,---,0.00,VWS V14.00,2013-03-04 11:00:00,
2013-03-04 06:30:00,15.2,13.3,30.17,SE,130,0.0,1.0,92,0.00,,---,0.00,VWS V14.00,2013-03-04 11:30:00,
2013-03-04 07:00:00,15.1,13.4,30.17,SE,130,0.0,0.0,93,0.00,,---,0.00,VWS V14.00,2013-03-04 12:00:00,
2013-03-04 07:30:00,15.5,13.8,30.18,SE,130,0.0,0.0,93,0.00,,---,0.00,VWS V14.00,2013-03-04 12:30:00,
2013-03-04 08:00:00,17.4,15.7,30.18,SE,130,0.0,0.0,93,0.00,,---,0.00,VWS V14.00,2013-03-04 13:00:00,
2013-03-04 08:30:00,20.2,18.0,30.18,SE,129,0.0,0.0,91,0.00,,---,0.00,VWS V14.00,2013-03-04 13:30:00,
2013-03-04 09:00:00,22.2,18.9,30.18,ESE,121,0.0,1.0,87,0.00,,---,0.00,VWS V14.00,2013-03-04 14:00:00,
2013-03-04 09:30:00,24.8,20.4,30.17,SE,124,0.0,3.0,83,0.00,,---,0.00,VWS V14.00,2013-03-04 14:30:00,
2013-03-04 10:00:00,26.6,20.4,30.17,East,101,0.0,4.0,77,0.00,,---,0.00,VWS V14.00,2013-03-04 15:00:00,
2013-03-04 10:30:00,28.2,21.3,30.17,SSE,166,2.0,4.0,75,0.00,,---,0.00,VWS V14.00,2013-03-04 15:30:00,
2013-03-04 11:00:00,28.8,21.2,30.17,ENE,74,1.0,4.0,73,0.00,,---,0.00,VWS V14.00,2013-03-04 16:00:00,
2013-03-04 11:30:00,29.9,21.3,30.16,SW,224,3.0,5.0,70,0.00,,---,0.00,VWS V14.00,2013-03-04 16:30:00,
2013-03-04 12:00:00,31.5,21.8,30.15,ESE,115,0.0,5.0,67,0.00,,---,0.00,VWS V14.00,2013-03-04 17:00:00,
2013-03-04 12:30:00,32.7,21.5,30.14,East,94,1.0,5.0,63,0.00,,---,0.00,VWS V14.00,2013-03-04 17:30:00,
2013-03-04 13:00:00,33.5,21.9,30.13,East,101,2.0,6.0,62,0.00,,---,0.00,VWS V14.00,2013-03-04 18:00:00,
2013-03-04 13:30:00,33.3,21.7,30.12,ESE,113,3.0,7.0,62,0.00,,---,0.00,VWS V14.00,2013-03-04 18:30:00,
2013-03-04 14:00:00,36.2,24.1,30.11,ESE,121,1.0,6.0,61,0.00,,---,0.00,VWS V14.00,2013-03-04 19:00:00,
2013-03-04 14:30:00,37.2,23.0,30.09,SSE,148,2.0,6.0,56,0.00,,---,0.00,VWS V14.00,2013-03-04 19:30:00,
2013-03-04 15:00:00,35.9,21.8,30.09,East,91,0.0,6.0,56,0.00,,---,0.00,VWS V14.00,2013-03-04 20:00:00,
2013-03-04 15:30:00,36.4,22.6,30.09,SSW,208,1.0,5.0,57,0.00,,---,0.00,VWS V14.00,2013-03-04 20:30:00,
2013-03-04 16:00:00,37.3,21.8,30.08,SE,146,2.0,8.0,53,0.00,,---,0.00,VWS V14.00,2013-03-04 21:00:00,
2013-03-04 16:30:00,35.9,20.9,30.08,ESE,113,1.0,5.0,54,0.00,,---,0.00,VWS V14.00,2013-03-04 21:30:00,
2013-03-04 17:00:00,35.3,22.0,30.07,ESE,123,2.0,7.0,58,0.00,,---,0.00,VWS V14.00,2013-03-04 22:00:00,
2013-03-04 17:30:00,35.1,23.0,30.06,ESE,102,1.0,6.0,61,0.00,,---,0.00,VWS V14.00,2013-03-04 22:30:00,
2013-03-04 18:00:00,34.7,22.6,30.06,ESE,109,1.0,6.0,61,0.00,,---,0.00,VWS V14.00,2013-03-04 23:00:00,
2013-03-04 18:30:00,34.5,21.3,30.06,SSE,148,2.0,4.0,58,0.00,,---,0.00,VWS V14.00,2013-03-04 23:30:00,
2013-03-04 19:00:00,34.2,21.8,30.05,East,99,3.0,5.0,60,0.00,,---,0.00,VWS V14.00,2013-03-05 00:00:00,
2013-03-04 19:30:00,34.1,21.7,30.06,ESE,108,2.0,4.0,60,0.00,,---,0.00,VWS V14.00,2013-03-05 00:30:00,
2013-03-04 20:00:00,33.9,23.0,30.06,East,98,2.0,4.0,64,0.00,,---,0.00,VWS V14.00,2013-03-05 01:00:00,
2013-03-04 20:30:00,33.6,23.1,30.08,ESE,113,0.0,4.0,65,0.00,,---,0.00,VWS V14.00,2013-03-05 01:30:00,
2013-03-04 21:00:00,33.0,24.0,30.09,ESE,102,0.0,4.0,69,0.00,,---,0.00,VWS V14.00,2013-03-05 02:00:00,
2013-03-04 21:30:00,32.7,24.4,30.10,ESE,103,1.0,3.0,71,0.00,,---,0.00,VWS V14.00,2013-03-05 02:30:00,
2013-03-04 22:00:00,32.5,24.5,30.09,SSE,166,1.0,4.0,72,0.00,,---,0.00,VWS V14.00,2013-03-05 03:00:00,
2013-03-04 22:30:00,31.6,26.5,30.10,SE,139,1.0,6.0,81,0.00,,---,0.00,VWS V14.00,2013-03-05 03:30:00,
2013-03-04 23:00:00,30.5,27.4,30.09,ESE,120,0.0,5.0,88,0.00,,---,0.00,VWS V14.00,2013-03-05 04:00:00,
2013-03-04 23:30:00,30.2,27.6,30.09,ESE,110,2.0,4.0,90,0.00,,---,0.00,VWS V14.00,2013-03-05 04:30:00,